Time;durP1;ratioP1;P1;durP2;ratioP2;P2;SDS_P1;SDS_P2;PMS_P1;PMS_P2;Temp;Humidity;BMP_temperature;BMP_pressure;BME280_temperature;BME280_humidity;BME280_pressure;Samples;Min_cycle;Max_cycle;Signal;HPM_P1;HPM_P2
2022/02/07 00:01:52;;;;;;;20.23;2.53;;;25.00;16.20;;;;;;5053482;28;20091;-63
2022/02/07 00:04:24;;;;;;;17.20;2.13;;;25.10;16.00;;;;;;5068346;28;20100;-65
2022/02/07 00:06:50;;;;;;;20.08;2.08;;;25.00;16.20;;;;;;5068586;28;20071;-66
2022/02/07 00:09:16;;;;;;;14.50;3.22;;;25.00;16.40;;;;;;5067906;28;20155;-65
2022/02/07 00:11:43;;;;;;;18.10;4.32;;;25.00;16.60;;;;;;5068728;28;20167;-64
2022/02/07 00:14:09;;;;;;;10.68;3.78;;;24.90;16.90;;;;;;5070362;28;20076;-65
2022/02/07 00:16:37;;;;;;;13.88;4.05;;;24.90;16.80;;;;;;5068577;28;20084;-62
2022/02/07 00:19:06;;;;;;;14.20;4.25;;;24.80;17.10;;;;;;5066768;28;20113;-65
2022/02/07 00:21:33;;;;;;;18.85;3.10;;;24.80;17.50;;;;;;5068007;28;20073;-65
2022/02/07 00:23:59;;;;;;;14.48;3.65;;;24.80;17.70;;;;;;5069310;28;20069;-63
2022/02/07 00:26:26;;;;;;;17.75;8.82;;;24.80;17.90;;;;;;5068432;28;20156;-65
2022/02/07 00:28:53;;;;;;;11.23;3.75;;;24.80;18.40;;;;;;5068070;28;20069;-65
2022/02/07 00:31:20;;;;;;;8.82;2.67;;;24.60;18.40;;;;;;5068071;28;20084;-66
2022/02/07 00:33:46;;;;;;;18.48;3.60;;;24.50;18.50;;;;;;5068238;28;20134;-64
2022/02/07 00:36:17;;;;;;;10.68;4.20;;;24.50;18.50;;;;;;5067869;28;20120;-64
2022/02/07 00:38:47;;;;;;;16.50;4.53;;;24.40;18.80;;;;;;5067584;28;20069;-64
2022/02/07 00:43:52;;;;;;;18.33;4.55;;;24.20;19.20;;;;;;5069293;28;20514;-65
2022/02/07 00:46:24;;;;;;;18.27;6.17;;;24.10;19.40;;;;;;5069809;28;20576;-66
2022/02/07 00:48:50;;;;;;;29.98;8.35;;;24.00;19.80;;;;;;5068046;28;20076;-67
2022/02/07 00:51:17;;;;;;;32.28;11.48;;;23.90;19.90;;;;;;5069442;28;20085;-66
2022/02/07 00:53:43;;;;;;;28.38;9.65;;;23.80;20.00;;;;;;5068690;28;20503;-65
2022/02/07 00:56:10;;;;;;;37.58;17.40;;;23.70;20.30;;;;;;5068386;28;20097;-65
2022/02/07 00:58:36;;;;;;;30.45;15.05;;;23.50;20.50;;;;;;5067649;28;20069;-66
2022/02/07 01:01:03;;;;;;;32.00;12.48;;;23.40;20.70;;;;;;5067611;28;20089;-65
2022/02/07 01:03:30;;;;;;;34.70;12.00;;;23.40;21.20;;;;;;5067561;28;20085;-65
2022/02/07 01:05:56;;;;;;;45.72;23.45;;;23.20;21.60;;;;;;5050533;28;20135;-67
2022/02/07 01:08:35;;;;;;;39.58;19.98;;;23.00;22.20;;;;;;5068935;28;20093;-66
2022/02/07 01:11:12;;;;;;;31.65;11.50;;;22.90;22.40;;;;;;5071255;28;20085;-67
2022/02/07 01:19:34;;;;;;;22.55;3.63;;;22.50;23.40;;;;;;5072639;28;20104;-65
2022/02/07 01:49:22;;;;;;;18.48;5.05;;;20.30;26.10;;;;;;5070139;28;20216;-68
2022/02/07 01:57:04;;;;;;;29.13;7.00;;;19.80;27.10;;;;;;5071048;28;20074;-66
2022/02/07 01:59:31;;;;;;;42.30;7.78;;;19.60;27.40;;;;;;5053990;28;20069;-66
2022/02/07 02:01:57;;;;;;;34.22;8.13;;;19.60;28.10;;;;;;5070554;28;20081;-64
2022/02/07 02:04:25;;;;;;;40.03;8.48;;;19.50;28.00;;;;;;5070108;28;20185;-66
2022/02/07 02:06:52;;;;;;;41.15;8.20;;;19.30;28.70;;;;;;5071517;28;20069;-65
2022/02/07 02:09:23;;;;;;;44.17;10.38;;;19.20;28.90;;;;;;5070492;28;20079;-68
2022/02/07 02:11:50;;;;;;;32.78;10.55;;;19.10;29.50;;;;;;5069981;28;20104;-65
2022/02/07 02:22:52;;;;;;;34.05;9.68;;;18.80;29.20;;;;;;5027622;28;20093;-65
2022/02/07 02:32:50;;;;;;;40.75;10.10;;;18.50;29.70;;;;;;5027989;28;20160;-68
2022/02/07 02:34:14;;;;;;;45.38;14.95;;;18.30;30.60;;;;;;5017274;28;20100;-66
2022/02/07 02:47:20;;;;;;;57.80;23.35;;;17.90;31.10;;;;;;5028933;28;20104;-66
2022/02/07 02:50:00;;;;;;;53.15;24.73;;;17.80;30.90;;;;;;5012474;28;20085;-65
2022/02/07 02:52:26;;;;;;;55.63;25.60;;;17.70;31.10;;;;;;5027840;28;20123;-67
2022/02/07 02:54:53;;;;;;;52.97;22.75;;;17.60;31.10;;;;;;5012406;28;20074;-67
2022/02/07 02:57:19;;;;;;;;;;;17.60;30.90;;;;;;5046852;28;20166;-67
2022/02/07 02:59:45;;;;;;;57.15;21.60;;;17.50;30.80;;;;;;5070439;28;20330;-66
2022/02/07 03:02:12;;;;;;;61.30;20.70;;;17.40;30.80;;;;;;5069738;28;20084;-68
2022/02/07 03:04:38;;;;;;;49.53;17.38;;;17.30;31.00;;;;;;5069090;28;20096;-63
2022/02/07 03:07:05;;;;;;;47.88;16.13;;;17.30;31.80;;;;;;5066251;28;20083;-66
2022/02/07 03:09:31;;;;;;;58.90;20.85;;;17.20;31.60;;;;;;5069165;28;20069;-65
2022/02/07 03:11:58;;;;;;;64.05;27.00;;;17.10;31.20;;;;;;5069374;28;20085;-65
2022/02/07 03:14:36;;;;;;;;;;;17.00;31.30;;;;;;5069347;28;20100;-64
2022/02/07 03:17:02;;;;;;;72.75;31.15;;;17.00;31.40;;;;;;5053298;28;20030;-66
2022/02/07 03:19:29;;;;;;;94.68;29.95;;;17.00;31.40;;;;;;5069048;28;20077;-66
2022/02/07 03:21:55;;;;;;;83.78;26.15;;;16.90;31.80;;;;;;5067659;28;20138;-66
2022/02/07 03:24:21;;;;;;;;;;;16.90;32.10;;;;;;5068168;28;20072;-67
2022/02/07 03:26:48;;;;;;;57.45;16.55;;;16.80;31.50;;;;;;5068418;28;19977;-66
2022/02/07 03:29:15;;;;;;;44.05;10.70;;;16.80;31.30;;;;;;5069474;28;20530;-64
2022/02/07 03:31:41;;;;;;;43.65;11.15;;;16.80;30.90;;;;;;5066915;28;20077;-66
2022/02/07 03:34:08;;;;;;;41.33;13.23;;;16.80;30.80;;;;;;5069049;28;20073;-67
2022/02/07 03:36:35;;;;;;;49.17;11.65;;;16.80;31.00;;;;;;5068989;28;20438;-63
2022/02/07 03:39:03;;;;;;;43.65;10.98;;;16.70;31.10;;;;;;5069679;28;20075;-65
2022/02/07 03:41:30;;;;;;;55.00;10.50;;;16.70;31.00;;;;;;5067798;28;20092;-64
2022/02/07 03:43:57;;;;;;;34.75;9.00;;;16.70;31.10;;;;;;5068153;28;20189;-66
2022/02/07 03:46:24;;;;;;;33.17;6.85;;;16.60;31.10;;;;;;5069546;28;20775;-64
2022/02/07 03:48:50;;;;;;;;;;;16.70;30.20;;;;;;5067483;28;20077;-65
2022/02/07 03:51:19;;;;;;;31.00;9.00;;;16.70;29.90;;;;;;5068863;28;20467;-65
2022/02/07 03:53:46;;;;;;;27.13;9.57;;;16.70;29.20;;;;;;5067664;28;20527;-65
2022/02/07 03:56:12;;;;;;;;;;;16.80;29.10;;;;;;5068303;28;20094;-63
2022/02/07 03:58:38;;;;;;;39.33;6.85;;;16.80;29.10;;;;;;5067755;28;19983;-64
2022/02/07 04:01:05;;;;;;;18.67;5.32;;;16.70;29.10;;;;;;5066616;28;20073;-64
2022/02/07 04:03:34;;;;;;;31.73;7.00;;;16.70;29.20;;;;;;5069253;28;20096;-67
2022/02/07 04:06:04;;;;;;;19.83;7.05;;;16.60;29.50;;;;;;5068365;28;20104;-66
2022/02/07 04:08:37;;;;;;;26.85;5.80;;;16.50;29.40;;;;;;5051960;28;20073;-65
2022/02/07 04:11:17;;;;;;;24.77;6.35;;;16.50;29.30;;;;;;5052146;28;20085;-65
2022/02/07 04:13:50;;;;;;;28.17;6.70;;;16.40;29.30;;;;;;5066624;28;20555;-66
2022/02/07 04:16:16;;;;;;;24.65;6.00;;;16.30;29.60;;;;;;5068074;28;20088;-66
2022/02/07 04:19:32;;;;;;;21.35;5.88;;;16.30;29.60;;;;;;5069276;28;20223;-68
2022/02/07 04:21:32;;;;;;;17.85;5.10;;;16.20;29.70;;;;;;5065429;28;20127;-63
2022/02/07 04:23:59;;;;;;;24.27;4.97;;;16.10;29.80;;;;;;5069295;28;20084;-66
2022/02/07 04:26:27;;;;;;;18.65;4.88;;;16.10;29.60;;;;;;5069252;28;20145;-66
2022/02/07 04:28:53;;;;;;;19.38;4.45;;;16.10;29.50;;;;;;5067302;28;20156;-66
2022/02/07 04:31:19;;;;;;;;;;;16.10;28.90;;;;;;5069116;28;20117;-64
2022/02/07 04:33:45;;;;;;;17.35;3.60;;;16.20;28.20;;;;;;5067290;28;19957;-63
2022/02/07 04:36:12;;;;;;;;;;;16.30;27.50;;;;;;5069138;28;20073;-67
2022/02/07 04:38:38;;;;;;;20.88;4.00;;;16.40;27.00;;;;;;5069924;28;19961;-65
2022/02/07 04:41:07;;;;;;;15.60;3.40;;;16.40;27.00;;;;;;5070698;28;20547;-66
2022/02/07 04:43:34;;;;;;;15.00;3.60;;;16.50;26.90;;;;;;5070034;28;20636;-67
2022/02/07 04:46:25;;;;;;;11.35;3.45;;;16.50;26.90;;;;;;5072707;28;20093;-64
2022/02/07 04:54:14;;;;;;;16.98;2.53;;;16.50;26.90;;;;;;5071836;28;20155;-63
2022/02/07 05:00:04;;;;;;;10.90;1.85;;;16.50;26.20;;;;;;5031073;28;19999;-64
2022/02/07 05:15:49;;;;;;;18.27;3.38;;;16.50;25.90;;;;;;5042042;28;20594;-63
2022/02/07 05:18:17;;;;;;;11.43;3.17;;;16.50;26.00;;;;;;5035122;28;20645;-64
2022/02/07 05:20:43;;;;;;;10.65;3.45;;;16.40;26.10;;;;;;5030589;28;20520;-64
2022/02/07 05:23:09;;;;;;;;;;;16.40;26.30;;;;;;5030057;28;20098;-65
2022/02/07 05:25:36;;;;;;;20.55;3.42;;;16.30;26.50;;;;;;5033261;28;19972;-67
2022/02/07 05:28:02;;;;;;;;;;;16.20;26.70;;;;;;5032691;28;20575;-64
2022/02/07 05:30:29;;;;;;;20.15;3.13;;;16.20;26.70;;;;;;5047458;28;19983;-64
2022/02/07 05:32:55;;;;;;;13.95;2.72;;;16.10;26.90;;;;;;5069029;28;20077;-65
2022/02/07 05:35:21;;;;;;;;;;;16.00;26.80;;;;;;5068945;28;20138;-65
2022/02/07 05:37:48;;;;;;;7.95;1.85;;;16.00;26.70;;;;;;5071119;28;20000;-67
2022/02/07 05:40:27;;;;;;;;;;;16.00;26.60;;;;;;5070691;28;20164;-64
2022/02/07 05:42:53;;;;;;;12.45;2.75;;;16.00;26.40;;;;;;5070293;28;19976;-64
2022/02/07 05:45:19;;;;;;;;;;;15.90;26.60;;;;;;5070404;28;20093;-66
2022/02/07 05:47:46;;;;;;;19.17;2.97;;;15.80;26.70;;;;;;5070034;28;20403;-66
2022/02/07 05:50:12;;;;;;;15.93;2.90;;;15.90;26.40;;;;;;5070404;28;20123;-64
2022/02/07 05:52:39;;;;;;;14.32;2.65;;;15.90;26.60;;;;;;5068306;28;20622;-65
2022/02/07 05:55:05;;;;;;;;;;;15.90;26.50;;;;;;5069015;28;20551;-67
2022/02/07 05:57:31;;;;;;;23.55;3.05;;;15.80;26.50;;;;;;5068829;28;19956;-65
2022/02/07 05:59:57;;;;;;;;;;;15.80;26.40;;;;;;5069435;28;20107;-66
2022/02/07 06:02:24;;;;;;;11.73;2.47;;;15.80;26.40;;;;;;5070310;28;20357;-66
2022/02/07 06:04:50;;;;;;;;;;;15.70;26.50;;;;;;5069181;28;20163;-67
2022/02/07 06:07:16;;;;;;;12.55;2.22;;;15.70;26.30;;;;;;5052165;28;20341;-63
2022/02/07 06:09:42;;;;;;;;;;;15.70;26.30;;;;;;5070840;28;20073;-66
2022/02/07 06:12:09;;;;;;;11.68;1.88;;;15.70;26.40;;;;;;5069579;28;20075;-66
2022/02/07 06:14:36;;;;;;;12.73;1.90;;;15.60;26.50;;;;;;5069079;28;20099;-66
2022/02/07 06:17:02;;;;;;;11.45;1.63;;;15.50;26.60;;;;;;5071352;28;20179;-65
2022/02/07 06:19:29;;;;;;;12.32;2.00;;;15.50;26.70;;;;;;5069101;28;20073;-63
2022/02/07 06:21:56;;;;;;;11.75;1.95;;;15.50;26.80;;;;;;5069402;28;20073;-64
2022/02/07 06:24:23;;;;;;;7.85;2.45;;;15.40;27.00;;;;;;5070740;28;20427;-63
2022/02/07 06:26:50;;;;;;;12.05;2.53;;;15.30;27.10;;;;;;5068534;28;20077;-66
2022/02/07 06:29:16;;;;;;;6.95;2.17;;;15.30;27.20;;;;;;5068758;28;20475;-64
2022/02/07 06:31:42;;;;;;;;;;;15.30;27.40;;;;;;5069005;28;20486;-63
2022/02/07 06:34:09;;;;;;;16.63;2.70;;;15.20;27.20;;;;;;5068781;28;19968;-65
2022/02/07 06:36:35;;;;;;;;;;;15.30;27.20;;;;;;5068095;28;20073;-64
2022/02/07 06:39:02;;;;;;;9.73;1.70;;;15.30;27.10;;;;;;5070213;28;20011;-65
2022/02/07 06:41:28;;;;;;;14.32;1.85;;;15.30;26.80;;;;;;5069035;28;20088;-64
2022/02/07 06:43:55;;;;;;;13.20;1.55;;;15.30;26.60;;;;;;5068863;28;20123;-66
2022/02/07 06:46:21;;;;;;;16.58;3.08;;;15.40;26.60;;;;;;5052706;28;20077;-63
2022/02/07 06:48:47;;;;;;;;;;;15.40;26.60;;;;;;5068975;28;20080;-63
2022/02/07 06:51:14;;;;;;;15.38;2.70;;;15.50;26.70;;;;;;5067174;28;19969;-67
2022/02/07 06:53:40;;;;;;;11.05;1.95;;;15.50;26.70;;;;;;5067653;28;20093;-64
2022/02/07 06:56:07;;;;;;;13.43;2.13;;;15.50;26.70;;;;;;5067707;28;20073;-66
2022/02/07 06:58:34;;;;;;;9.27;1.77;;;15.50;26.80;;;;;;5069676;28;20085;-65
2022/02/07 07:01:01;;;;;;;12.20;2.10;;;15.40;26.90;;;;;;5068274;28;20079;-65
2022/02/07 07:03:32;;;;;;;13.02;1.70;;;15.40;27.00;;;;;;5069334;28;20069;-66
2022/02/07 07:05:58;;;;;;;12.85;2.25;;;15.40;27.00;;;;;;5068221;28;20089;-64
2022/02/07 07:08:24;;;;;;;;;;;15.30;27.10;;;;;;5069718;28;20160;-64
2022/02/07 07:10:54;;;;;;;13.20;1.80;;;15.30;27.10;;;;;;5069095;28;19976;-65
2022/02/07 07:13:25;;;;;;;6.57;1.52;;;15.30;27.10;;;;;;5070254;28;20103;-66
2022/02/07 07:16:02;;;;;;;10.23;2.10;;;15.20;27.20;;;;;;5070945;28;20087;-65
2022/02/07 07:18:28;;;;;;;12.23;2.30;;;15.20;27.30;;;;;;5069388;28;20116;-65
2022/02/07 07:20:54;;;;;;;;;;;15.20;27.60;;;;;;5068516;28;20096;-65
2022/02/07 07:23:21;;;;;;;9.80;1.90;;;15.10;27.80;;;;;;5069619;28;19956;-67
2022/02/07 07:25:47;;;;;;;;;;;15.00;28.20;;;;;;5053020;28;20080;-64
2022/02/07 07:28:15;;;;;;;17.52;2.83;;;15.50;28.60;;;;;;5070086;28;19981;-66
2022/02/07 07:30:50;;;;;;;16.35;3.42;;;15.80;28.00;;;;;;5069975;28;20091;-62
2022/02/07 07:33:20;;;;;;;17.52;3.80;;;16.00;28.00;;;;;;5068313;28;20092;-64
2022/02/07 07:35:47;;;;;;;16.48;4.25;;;16.00;28.30;;;;;;5068468;28;20088;-63
2022/02/07 07:38:13;;;;;;;;;;;16.80;28.60;;;;;;5069036;28;20069;-61
2022/02/07 07:40:41;;;;;;;12.98;4.10;;;17.20;28.60;;;;;;5068072;28;19957;-66
2022/02/07 07:43:09;;;;;;;26.10;4.40;;;17.00;27.70;;;;;;5069365;28;20092;-62
2022/02/07 07:45:43;;;;;;;17.23;3.72;;;17.00;27.60;;;;;;5070415;28;20084;-62
2022/02/07 07:48:12;;;;;;;27.00;4.78;;;16.90;27.50;;;;;;5068484;28;20168;-62
2022/02/07 07:50:49;;;;;;;21.73;5.05;;;17.10;27.90;;;;;;5068155;28;20097;-62
2022/02/07 08:04:30;;;;;;;11.98;3.42;;;16.20;27.20;;;;;;5007756;28;20079;-62
2022/02/07 08:12:01;;;;;;;9.23;2.20;;;15.80;27.40;;;;;;4989769;28;20094;-64
2022/02/07 08:14:34;;;;;;;6.97;1.85;;;15.70;27.40;;;;;;4991007;28;20533;-64
2022/02/07 08:17:02;;;;;;;18.02;2.75;;;15.70;27.40;;;;;;4991607;28;20681;-63
2022/02/07 08:19:30;;;;;;;8.93;1.98;;;15.60;27.50;;;;;;5010678;28;20078;-62
2022/02/07 08:21:57;;;;;;;12.80;1.98;;;15.70;27.50;;;;;;5009963;28;20086;-63
2022/02/07 08:24:24;;;;;;;13.93;2.22;;;15.60;27.30;;;;;;5011750;28;20066;-63
2022/02/07 08:26:53;;;;;;;10.38;1.50;;;15.70;27.30;;;;;;4993745;28;20074;-61
2022/02/07 08:29:20;;;;;;;14.32;1.88;;;15.70;27.20;;;;;;5011041;28;20127;-64
2022/02/07 08:31:46;;;;;;;9.88;2.38;;;15.70;27.30;;;;;;5010638;28;20071;-63
2022/02/07 08:34:13;;;;;;;13.32;2.47;;;15.90;27.30;;;;;;5010624;28;20078;-60
2022/02/07 08:36:40;;;;;;;;;;;15.80;27.20;;;;;;4993772;28;20113;-62
2022/02/07 08:39:07;;;;;;;15.55;2.30;;;15.60;27.40;;;;;;5011342;28;20052;-64
2022/02/07 08:41:33;;;;;;;17.70;2.65;;;15.50;27.70;;;;;;5056921;28;20164;-63
2022/02/07 08:43:59;;;;;;;;;;;15.60;27.90;;;;;;5072657;28;20081;-62
2022/02/07 08:46:26;;;;;;;11.35;2.50;;;15.70;27.90;;;;;;5072031;28;20437;-63
2022/02/07 08:48:52;;;;;;;19.27;2.33;;;15.70;27.80;;;;;;5071470;28;20152;-61
2022/02/07 08:51:19;;;;;;;;;;;15.60;27.80;;;;;;5071432;28;20512;-64
2022/02/07 08:53:47;;;;;;;14.05;2.70;;;15.50;28.00;;;;;;5071493;28;20734;-63
2022/02/07 08:56:15;;;;;;;17.92;3.20;;;15.50;28.20;;;;;;5071292;28;20077;-63
2022/02/07 08:58:45;;;;;;;16.92;3.08;;;15.40;28.60;;;;;;5071104;28;20096;-63
2022/02/07 09:04:07;;;;;;;18.30;2.78;;;15.40;28.80;;;;;;5071693;28;20073;-65
2022/02/07 09:09:08;;;;;;;9.00;2.17;;;15.30;28.90;;;;;;5072212;28;20069;-62
2022/02/07 09:11:35;;;;;;;15.70;3.05;;;15.10;29.40;;;;;;5070098;28;20120;-64
2022/02/07 09:14:09;;;;;;;23.25;2.80;;;15.10;29.00;;;;;;5071129;28;20089;-62
2022/02/07 09:16:37;;;;;;;19.25;3.08;;;14.90;29.30;;;;;;5054860;28;20091;-64
2022/02/07 09:19:04;;;;;;;14.45;3.10;;;14.90;29.80;;;;;;5070678;28;20109;-65
2022/02/07 09:21:31;;;;;;;12.68;2.72;;;14.80;29.80;;;;;;5071024;28;20100;-63
2022/02/07 09:23:58;;;;;;;13.27;2.88;;;14.80;30.00;;;;;;5071557;28;20073;-62
2022/02/07 09:26:25;;;;;;;15.05;2.70;;;14.90;30.00;;;;;;5072301;28;20095;-62
2022/02/07 09:28:52;;;;;;;14.50;2.80;;;14.80;29.80;;;;;;5053268;28;20069;-63
2022/02/07 09:31:21;;;;;;;21.55;2.78;;;14.90;30.40;;;;;;5070632;28;20093;-62
2022/02/07 09:33:48;;;;;;;10.93;2.00;;;14.80;30.60;;;;;;5070775;28;20101;-64
2022/02/07 09:36:15;;;;;;;12.20;2.03;;;14.70;30.90;;;;;;5070904;28;20537;-64
2022/02/07 09:38:44;;;;;;;13.85;2.15;;;14.70;31.00;;;;;;5070402;28;20092;-63
2022/02/07 09:41:11;;;;;;;9.73;2.25;;;14.70;30.80;;;;;;5070957;28;20077;-63
2022/02/07 09:43:46;;;;;;;11.82;2.05;;;14.70;30.60;;;;;;5069992;28;20075;-62
2022/02/07 09:46:20;;;;;;;6.78;1.30;;;14.60;30.30;;;;;;5071072;28;20100;-60
2022/02/07 09:48:49;;;;;;;9.98;1.40;;;14.60;30.40;;;;;;5039186;28;20072;-62
2022/02/07 09:51:15;;;;;;;14.30;1.92;;;14.60;30.90;;;;;;5070491;28;20096;-63
2022/02/07 09:53:41;;;;;;;;;;;14.60;31.50;;;;;;5053305;28;20082;-64
2022/02/07 09:56:10;;;;;;;10.23;1.77;;;14.50;32.00;;;;;;5053354;28;20000;-64
2022/02/07 09:58:38;;;;;;;7.45;1.65;;;14.50;32.20;;;;;;5071998;28;20069;-62
2022/02/07 10:01:10;;;;;;;10.07;2.00;;;14.40;32.30;;;;;;5070289;28;20077;-62
2022/02/07 10:03:52;;;;;;;4.13;1.60;;;14.40;32.30;;;;;;5054138;28;20080;-61
2022/02/07 10:06:35;;;;;;;4.75;1.42;;;14.40;32.30;;;;;;5071857;28;20581;-61
2022/02/07 10:09:20;;;;;;;8.45;1.35;;;14.50;32.20;;;;;;5070348;28;20081;-63
2022/02/07 10:12:02;;;;;;;4.97;1.20;;;14.40;32.30;;;;;;5071591;28;20092;-61
2022/02/07 10:14:43;;;;;;;6.18;1.58;;;14.40;33.00;;;;;;5054254;28;20192;-59
2022/02/07 10:19:56;;;;;;;8.60;1.55;;;14.40;34.40;;;;;;5071272;28;20442;-64
2022/02/07 10:37:43;;;;;;;6.28;1.10;;;14.00;37.40;;;;;;5071280;28;20076;-62
2022/02/07 10:39:34;;;;;;;6.32;1.10;;;14.00;38.00;;;;;;5066629;28;20097;-62
2022/02/07 10:42:30;;;;;;;6.55;0.90;;;13.90;38.00;;;;;;5069186;28;20206;-63
2022/02/07 10:44:59;;;;;;;3.42;0.88;;;13.90;38.30;;;;;;5070490;28;20069;-63
2022/02/07 10:47:42;;;;;;;8.68;1.17;;;13.90;38.30;;;;;;5070039;28;20069;-63
2022/02/07 10:50:18;;;;;;;5.05;0.95;;;13.90;38.10;;;;;;5068669;28;20555;-61
2022/02/07 10:53:00;;;;;;;6.17;0.97;;;13.70;37.70;;;;;;5069389;28;20081;-63
2022/02/07 10:55:32;;;;;;;3.97;0.77;;;13.60;37.60;;;;;;5069291;28;20442;-62
2022/02/07 10:58:00;;;;;;;6.50;1.00;;;13.60;37.80;;;;;;5069046;28;20543;-64
2022/02/07 11:00:34;;;;;;;7.05;1.15;;;13.60;38.60;;;;;;5069922;28;20065;-61
2022/02/07 11:03:07;;;;;;;7.20;1.15;;;13.40;39.30;;;;;;5068945;28;20153;-61
2022/02/07 11:05:42;;;;;;;6.72;0.80;;;13.30;38.90;;;;;;5068667;28;20073;-63
2022/02/07 11:08:23;;;;;;;2.88;1.05;;;13.10;39.20;;;;;;5067977;28;20141;-62
2022/02/07 11:16:26;;;;;;;8.35;1.65;;;13.20;40.00;;;;;;5069917;28;20096;-62
2022/02/07 11:27:42;;;;;;;16.90;4.10;;;12.70;39.20;;;;;;5070224;28;20138;-64
2022/02/07 11:30:17;;;;;;;11.93;4.15;;;12.70;38.80;;;;;;5068442;28;21507;-62
2022/02/07 11:32:44;;;;;;;22.27;4.70;;;12.60;38.70;;;;;;5063574;28;20092;-62
2022/02/07 11:35:16;;;;;;;8.68;3.75;;;12.60;38.80;;;;;;5068603;28;20085;-65
2022/02/07 11:37:49;;;;;;;20.45;3.92;;;12.40;38.90;;;;;;5052515;28;20069;-63
2022/02/07 11:40:30;;;;;;;23.40;4.93;;;12.30;39.30;;;;;;5052908;28;20139;-64
2022/02/07 11:43:06;;;;;;;26.98;4.40;;;12.30;39.60;;;;;;5068247;28;20218;-64
2022/02/07 11:45:55;;;;;;;24.02;4.60;;;12.10;40.10;;;;;;5067011;28;20096;-61
2022/02/07 11:48:45;;;;;;;19.77;4.40;;;12.00;40.00;;;;;;5068071;28;20519;-61
2022/02/07 11:51:14;;;;;;;21.77;5.40;;;12.10;40.80;;;;;;5069509;28;20127;-61
2022/02/07 11:53:50;;;;;;;16.33;5.07;;;12.10;40.40;;;;;;5066192;28;20093;-63
2022/02/07 11:56:42;;;;;;;17.80;4.17;;;12.10;40.40;;;;;;5051810;28;20535;-60
2022/02/07 11:59:38;;;;;;;22.17;4.95;;;12.00;40.40;;;;;;5051972;28;20073;-61
2022/02/07 12:02:15;;;;;;;17.17;4.45;;;11.80;40.60;;;;;;5067348;28;20077;-64
2022/02/07 12:04:53;;;;;;;17.95;4.82;;;11.80;41.20;;;;;;5053223;28;20069;-63
2022/02/07 12:07:31;;;;;;;14.07;3.97;;;11.90;41.60;;;;;;5067858;28;20077;-63
2022/02/07 12:10:14;;;;;;;18.77;4.32;;;11.90;41.60;;;;;;5068308;28;20090;-61
2022/02/07 12:12:42;;;;;;;22.83;4.65;;;11.70;41.20;;;;;;5052717;28;20096;-62
2022/02/07 12:15:27;;;;;;;17.15;4.40;;;11.60;41.80;;;;;;5069451;28;20131;-63
2022/02/07 12:17:58;;;;;;;20.67;5.07;;;11.70;41.80;;;;;;5069325;28;20105;-61
2022/02/07 12:20:30;;;;;;;27.38;4.50;;;11.70;41.40;;;;;;5051370;28;20438;-61
2022/02/07 12:23:08;;;;;;;22.60;5.30;;;11.50;41.60;;;;;;5070067;28;20462;-63
2022/02/07 12:25:52;;;;;;;20.15;4.72;;;11.50;41.40;;;;;;5035314;28;20081;-61
2022/02/07 12:28:45;;;;;;;21.70;4.22;;;11.30;41.10;;;;;;5067623;28;20449;-61
2022/02/07 12:31:20;;;;;;;25.63;4.60;;;11.50;39.60;;;;;;5066858;28;20090;-62
2022/02/07 12:34:07;;;;;;;18.30;4.55;;;11.70;39.70;;;;;;5051331;28;20097;-61
2022/02/07 12:36:38;;;;;;;14.85;5.38;;;11.70;39.50;;;;;;5067980;28;20065;-61
2022/02/07 12:39:15;;;;;;;18.98;5.53;;;11.70;38.90;;;;;;5067966;28;20617;-62
2022/02/07 12:41:41;;;;;;;;;;;11.70;39.20;;;;;;5068477;28;20151;-62
2022/02/07 12:44:09;;;;;;;12.50;5.40;;;11.70;39.60;;;;;;5067875;28;19964;-62
2022/02/07 12:46:40;;;;;;;23.33;5.57;;;11.60;39.60;;;;;;5070293;28;20080;-63
2022/02/07 12:49:13;;;;;;;17.88;5.85;;;11.50;39.80;;;;;;5050621;28;20084;-62
2022/02/07 12:51:46;;;;;;;19.75;5.70;;;11.50;41.00;;;;;;5051125;28;20077;-64
2022/02/07 12:54:15;;;;;;;22.88;6.57;;;11.40;40.90;;;;;;5068480;28;20543;-63
2022/02/07 12:56:42;;;;;;;14.93;5.90;;;11.40;39.50;;;;;;5067635;28;20084;-62
2022/02/07 12:59:09;;;;;;;21.70;6.50;;;11.40;39.30;;;;;;5067568;28;20065;-61
2022/02/07 13:01:42;;;;;;;19.98;6.35;;;11.30;39.00;;;;;;5050679;28;20115;-61
2022/02/07 13:04:18;;;;;;;21.67;6.60;;;11.20;39.20;;;;;;5068583;28;20084;-58
2022/02/07 13:06:48;;;;;;;25.55;6.93;;;11.20;40.00;;;;;;5071807;28;20551;-63
2022/02/07 13:09:51;;;;;;;18.33;6.55;;;11.20;39.10;;;;;;5070044;28;20085;-61
2022/02/07 13:12:31;;;;;;;22.10;5.85;;;11.30;38.70;;;;;;5069327;28;20178;-62
2022/02/07 13:14:59;;;;;;;23.40;7.32;;;11.30;38.70;;;;;;5071343;28;20653;-63
2022/02/07 13:17:28;;;;;;;22.00;5.68;;;11.40;39.20;;;;;;5071201;28;20117;-62
2022/02/07 13:19:55;;;;;;;22.48;6.65;;;11.30;38.40;;;;;;5069966;28;20162;-63
2022/02/07 13:22:24;;;;;;;25.02;6.78;;;11.10;38.40;;;;;;5054485;28;20073;-61
2022/02/07 13:24:57;;;;;;;22.23;6.82;;;11.10;38.70;;;;;;5072862;28;20115;-61
2022/02/07 13:27:24;;;;;;;21.88;6.25;;;11.00;38.90;;;;;;5053774;28;20101;-61
2022/02/07 13:29:54;;;;;;;19.55;5.85;;;10.90;39.40;;;;;;5069676;28;20076;-61
2022/02/07 13:32:28;;;;;;;22.10;6.55;;;11.00;40.20;;;;;;5070744;28;20112;-61
2022/02/07 13:35:16;;;;;;;33.45;6.78;;;10.90;39.70;;;;;;5070791;28;20065;-64
2022/02/07 13:37:43;;;;;;;26.77;6.93;;;10.80;40.00;;;;;;5038160;28;20076;-61
2022/02/07 13:40:25;;;;;;;17.48;5.82;;;10.80;39.70;;;;;;5069204;28;20689;-63
2022/02/07 13:42:54;;;;;;;18.45;6.50;;;10.90;40.70;;;;;;5070190;28;20553;-63
2022/02/07 13:45:23;;;;;;;20.63;5.78;;;10.90;40.20;;;;;;5069077;28;20579;-63
2022/02/07 13:47:52;;;;;;;26.30;5.43;;;10.90;39.50;;;;;;5071692;28;20171;-62
2022/02/07 13:50:22;;;;;;;18.75;5.78;;;10.90;40.10;;;;;;5069085;28;20089;-61
2022/02/07 13:52:51;;;;;;;21.08;6.63;;;10.80;40.30;;;;;;5071766;28;20474;-62
2022/02/07 13:55:41;;;;;;;25.38;5.80;;;10.70;40.00;;;;;;5052708;28;20084;-63
2022/02/07 13:58:12;;;;;;;18.27;5.68;;;10.70;40.00;;;;;;5053705;28;20099;-64
2022/02/07 14:00:53;;;;;;;23.15;5.45;;;10.70;40.60;;;;;;5070675;28;20065;-63
2022/02/07 14:03:21;;;;;;;21.50;6.22;;;10.60;40.00;;;;;;5069391;28;20134;-62
2022/02/07 14:05:55;;;;;;;31.02;6.20;;;10.60;39.80;;;;;;5070523;28;20088;-64
2022/02/07 14:08:34;;;;;;;28.67;6.22;;;10.60;40.40;;;;;;5070128;28;20073;-61
2022/02/07 14:11:07;;;;;;;21.70;5.40;;;10.60;39.60;;;;;;5070097;28;20101;-64
2022/02/07 14:13:35;;;;;;;25.38;6.20;;;10.50;39.20;;;;;;5053743;28;20876;-63
2022/02/07 14:16:03;;;;;;;29.60;6.05;;;10.50;39.20;;;;;;5036237;28;20096;-62
2022/02/07 14:18:31;;;;;;;30.55;6.57;;;10.50;41.00;;;;;;5070949;28;20595;-64
2022/02/07 14:21:00;;;;;;;18.50;6.15;;;10.50;42.00;;;;;;5069807;28;20174;-63
2022/02/07 14:23:28;;;;;;;18.08;5.63;;;10.40;42.50;;;;;;5070497;28;20103;-62
2022/02/07 14:26:00;;;;;;;23.08;5.43;;;10.30;42.10;;;;;;5070067;28;20080;-62
2022/02/07 14:28:27;;;;;;;22.30;6.78;;;10.30;42.40;;;;;;5071100;28;20498;-64
2022/02/07 14:30:54;;;;;;;22.55;6.43;;;10.30;41.40;;;;;;5069717;28;20164;-61
2022/02/07 14:33:21;;;;;;;23.60;6.35;;;10.20;42.30;;;;;;5069847;28;20092;-62
2022/02/07 14:35:48;;;;;;;20.48;6.82;;;10.20;43.30;;;;;;5069507;28;20069;-61
2022/02/07 14:38:14;;;;;;;25.33;7.40;;;10.10;42.90;;;;;;5071132;28;20598;-63
2022/02/07 14:40:43;;;;;;;;;;;10.00;42.40;;;;;;5069750;28;20176;-64
2022/02/07 14:43:15;;;;;;;28.38;7.97;;;10.00;41.80;;;;;;5069185;28;19968;-64
2022/02/07 14:45:53;;;;;;;25.50;8.88;;;10.10;42.50;;;;;;5069247;28;20149;-63
2022/02/07 14:48:21;;;;;;;35.42;9.35;;;10.10;43.20;;;;;;5070821;28;20079;-63
2022/02/07 14:50:48;;;;;;;35.97;8.82;;;10.00;44.00;;;;;;5069158;28;20096;-62
2022/02/07 14:53:14;;;;;;;27.92;9.48;;;10.00;44.30;;;;;;5068978;28;20089;-64
2022/02/07 14:55:40;;;;;;;;;;;9.90;43.40;;;;;;5036715;28;20524;-62
2022/02/07 14:58:08;;;;;;;31.13;9.88;;;10.00;43.40;;;;;;5067867;28;19956;-62
2022/02/07 15:00:34;;;;;;;40.70;10.65;;;10.00;43.20;;;;;;5052667;28;20081;-64
2022/02/07 15:03:01;;;;;;;29.02;9.63;;;9.90;42.70;;;;;;5069032;28;20477;-62
2022/02/07 15:05:34;;;;;;;30.13;9.55;;;10.00;42.40;;;;;;5068392;28;20130;-63
2022/02/07 15:08:01;;;;;;;37.05;10.00;;;10.10;42.20;;;;;;5067881;28;20104;-65
2022/02/07 15:10:32;;;;;;;32.13;10.32;;;10.20;42.30;;;;;;5067849;28;20089;-62
2022/02/07 15:12:59;;;;;;;31.77;9.43;;;10.20;42.70;;;;;;5053149;28;20101;-63
2022/02/07 15:15:26;;;;;;;29.33;10.65;;;10.30;42.30;;;;;;5069376;28;20105;-61
2022/02/07 15:17:54;;;;;;;41.78;10.65;;;10.30;41.90;;;;;;5070066;28;20135;-64
2022/02/07 15:20:21;;;;;;;51.90;12.48;;;10.50;42.00;;;;;;5067703;28;20079;-62
2022/02/07 15:22:49;;;;;;;35.28;10.32;;;10.60;42.90;;;;;;5068437;28;20453;-64